Time;durP1;ratioP1;P1;durP2;ratioP2;P2;SDS_P1;SDS_P2;PMS_P1;PMS_P2;Temp;Humidity;BMP_temperature;BMP_pressure;BME280_temperature;BME280_humidity;BME280_pressure;Samples;Min_cycle;Max_cycle;Signal;HPM_P1;HPM_P2
2021/07/10 00:00:46;;;;;;;0.30;0.30;;;;;;;;;;5051839;28;20419;-61
2021/07/10 00:03:12;;;;;;;0.30;0.30;;;;;;;;;;5051938;28;20455;-61
2021/07/10 00:05:38;;;;;;;0.30;0.30;;;;;;;;;;5052141;28;20413;-61
2021/07/10 00:08:04;;;;;;;0.30;0.30;;;;;;;;;;5052218;28;20791;-61
2021/07/10 00:10:30;;;;;;;0.30;0.30;;;;;;;;;;5051839;28;20808;-61
2021/07/10 00:12:57;;;;;;;0.30;0.30;;;;;;;;;;5051862;28;20430;-61
2021/07/10 00:15:23;;;;;;;0.30;0.30;;;;;;;;;;5051764;28;20427;-61
2021/07/10 00:17:50;;;;;;;0.30;0.20;;;;;;;;;;5052027;28;20491;-61
2021/07/10 00:20:16;;;;;;;0.30;0.30;;;;;;;;;;5051594;28;20435;-61
2021/07/10 00:22:43;;;;;;;0.30;0.30;;;;;;;;;;5051807;28;20407;-61
2021/07/10 00:25:11;;;;;;;0.30;0.30;;;;;;;;;;5052126;28;20443;-61
2021/07/10 00:27:38;;;;;;;0.30;0.30;;;;;;;;;;5051697;28;20404;-61
2021/07/10 00:30:04;;;;;;;0.40;0.40;;;;;;;;;;5051416;28;20401;-61
2021/07/10 00:32:30;;;;;;;0.30;0.30;;;;;;;;;;5051614;28;20451;-61
2021/07/10 00:34:56;;;;;;;0.30;0.30;;;;;;;;;;5051542;28;20925;-61
2021/07/10 00:37:22;;;;;;;0.30;0.30;;;;;;;;;;5051676;28;20184;-61
2021/07/10 00:39:48;;;;;;;0.30;0.30;;;;;;;;;;5051317;28;20436;-61
2021/07/10 00:42:17;;;;;;;0.30;0.30;;;;;;;;;;5051309;28;20976;-61
2021/07/10 00:44:43;;;;;;;0.30;0.20;;;;;;;;;;5051456;28;20891;-63
2021/07/10 00:47:09;;;;;;;0.30;0.20;;;;;;;;;;5051496;28;20416;-63
2021/07/10 00:49:35;;;;;;;0.30;0.30;;;;;;;;;;5051362;28;20448;-61
2021/07/10 00:52:01;;;;;;;0.30;0.20;;;;;;;;;;5051588;28;20881;-61
2021/07/10 00:54:27;;;;;;;0.30;0.30;;;;;;;;;;5051265;28;20442;-61
2021/07/10 00:56:58;;;;;;;0.30;0.30;;;;;;;;;;5051653;28;20916;-61
2021/07/10 00:59:24;;;;;;;0.30;0.30;;;;;;;;;;5051474;28;20780;-61
2021/07/10 01:01:50;;;;;;;0.30;0.30;;;;;;;;;;5051166;28;20414;-61
2021/07/10 01:04:16;;;;;;;0.30;0.30;;;;;;;;;;5051214;28;20460;-61
2021/07/10 01:06:42;;;;;;;0.30;0.30;;;;;;;;;;5051293;28;20656;-61
2021/07/10 01:09:08;;;;;;;0.30;0.30;;;;;;;;;;5053155;28;20400;-61
2021/07/10 01:11:34;;;;;;;0.30;0.30;;;;;;;;;;5055249;28;20414;-61
2021/07/10 01:14:02;;;;;;;0.30;0.30;;;;;;;;;;5055132;28;20480;-61
2021/07/10 01:16:28;;;;;;;0.30;0.30;;;;;;;;;;5055191;28;20179;-61
2021/07/10 01:18:54;;;;;;;0.30;0.30;;;;;;;;;;5055457;28;20500;-61
2021/07/10 01:21:20;;;;;;;0.30;0.30;;;;;;;;;;5055628;28;20211;-60
2021/07/10 01:23:48;;;;;;;0.30;0.20;;;;;;;;;;5055246;28;20875;-61
2021/07/10 01:26:14;;;;;;;0.30;0.30;;;;;;;;;;5055155;28;20519;-61
2021/07/10 01:28:40;;;;;;;0.30;0.30;;;;;;;;;;5055063;28;20190;-59
2021/07/10 01:31:06;;;;;;;0.30;0.30;;;;;;;;;;5054745;28;20499;-61
2021/07/10 01:33:32;;;;;;;0.30;0.20;;;;;;;;;;5054798;28;20939;-61
2021/07/10 01:35:58;;;;;;;0.30;0.20;;;;;;;;;;5054877;28;20206;-61
2021/07/10 01:38:24;;;;;;;0.30;0.20;;;;;;;;;;5037029;28;20223;-60
2021/07/10 01:40:50;;;;;;;0.30;0.30;;;;;;;;;;5054586;28;20439;-61
2021/07/10 01:43:16;;;;;;;0.30;0.30;;;;;;;;;;5054642;28;20522;-60
2021/07/10 01:45:42;;;;;;;0.30;0.30;;;;;;;;;;5054699;28;20402;-61
2021/07/10 01:48:10;;;;;;;0.30;0.30;;;;;;;;;;5054740;28;20791;-63
2021/07/10 01:50:37;;;;;;;0.30;0.30;;;;;;;;;;5054856;28;20754;-61
2021/07/10 01:53:03;;;;;;;0.30;0.30;;;;;;;;;;5054699;28;20430;-61
2021/07/10 01:55:30;;;;;;;0.30;0.30;;;;;;;;;;5054742;28;20174;-61
2021/07/10 01:57:57;;;;;;;0.30;0.30;;;;;;;;;;5054743;28;20200;-61
2021/07/10 02:00:27;;;;;;;0.30;0.30;;;;;;;;;;5054338;28;20440;-61
2021/07/10 02:02:56;;;;;;;0.30;0.30;;;;;;;;;;5054322;28;20172;-60
2021/07/10 02:05:25;;;;;;;0.30;0.30;;;;;;;;;;5054480;28;20429;-61
2021/07/10 02:07:51;;;;;;;0.30;0.30;;;;;;;;;;5054363;28;20164;-61
2021/07/10 02:10:19;;;;;;;0.30;0.30;;;;;;;;;;5054033;28;20389;-61
2021/07/10 02:12:49;;;;;;;0.30;0.30;;;;;;;;;;5054175;28;20412;-61
2021/07/10 02:15:15;;;;;;;0.30;0.30;;;;;;;;;;5054051;28;20216;-61
2021/07/10 02:17:44;;;;;;;0.30;0.30;;;;;;;;;;5054334;28;20916;-61
2021/07/10 02:20:11;;;;;;;0.30;0.30;;;;;;;;;;5053898;28;20208;-61
2021/07/10 02:22:37;;;;;;;0.30;0.30;;;;;;;;;;5054082;28;20818;-60
2021/07/10 02:25:05;;;;;;;0.30;0.30;;;;;;;;;;5053879;28;20227;-61
2021/07/10 02:27:31;;;;;;;0.30;0.30;;;;;;;;;;5054048;28;20441;-61
2021/07/10 02:29:57;;;;;;;0.30;0.30;;;;;;;;;;5053654;28;20208;-61
2021/07/10 02:32:23;;;;;;;0.30;0.30;;;;;;;;;;5053829;28;20400;-61
2021/07/10 02:34:49;;;;;;;0.30;0.30;;;;;;;;;;5053630;28;20849;-59
2021/07/10 02:37:15;;;;;;;0.30;0.30;;;;;;;;;;5053761;28;20414;-61
2021/07/10 02:39:41;;;;;;;0.30;0.30;;;;;;;;;;5053640;28;20183;-61
2021/07/10 02:42:07;;;;;;;0.30;0.30;;;;;;;;;;5053814;28;20436;-61
2021/07/10 02:44:33;;;;;;;0.30;0.30;;;;;;;;;;5053514;28;20571;-61
2021/07/10 02:46:59;;;;;;;0.30;0.30;;;;;;;;;;5053604;28;20218;-61
2021/07/10 02:49:25;;;;;;;0.30;0.30;;;;;;;;;;5053791;28;20437;-61
2021/07/10 02:51:51;;;;;;;0.30;0.30;;;;;;;;;;5053480;28;20413;-61
2021/07/10 02:54:17;;;;;;;0.30;0.30;;;;;;;;;;5053598;28;20206;-61
2021/07/10 02:56:43;;;;;;;0.30;0.30;;;;;;;;;;5053574;28;20549;-61
2021/07/10 02:59:09;;;;;;;0.30;0.30;;;;;;;;;;5053176;28;20904;-61
2021/07/10 03:01:35;;;;;;;0.30;0.30;;;;;;;;;;5053193;28;20176;-61
2021/07/10 03:04:01;;;;;;;0.30;0.20;;;;;;;;;;5053125;28;20253;-61
2021/07/10 03:06:27;;;;;;;0.30;0.30;;;;;;;;;;5053356;28;20480;-62
2021/07/10 03:08:53;;;;;;;0.30;0.20;;;;;;;;;;5053279;28;20402;-61
2021/07/10 03:11:19;;;;;;;0.30;0.30;;;;;;;;;;5052937;28;20502;-61
2021/07/10 03:13:45;;;;;;;0.30;0.30;;;;;;;;;;5052987;28;20437;-61
2021/07/10 03:16:11;;;;;;;0.30;0.30;;;;;;;;;;5053126;28;20176;-61
2021/07/10 03:18:37;;;;;;;0.30;0.20;;;;;;;;;;5053028;28;20640;-61
2021/07/10 03:21:03;;;;;;;0.30;0.30;;;;;;;;;;5052754;28;20420;-61
2021/07/10 03:23:29;;;;;;;0.30;0.30;;;;;;;;;;5051654;28;20458;-62
2021/07/10 03:25:55;;;;;;;0.30;0.30;;;;;;;;;;5053389;28;20540;-61
2021/07/10 03:28:21;;;;;;;0.30;0.30;;;;;;;;;;5052727;28;20442;-61
2021/07/10 03:30:51;;;;;;;0.30;0.30;;;;;;;;;;5052089;28;20410;-61
2021/07/10 03:33:17;;;;;;;0.30;0.30;;;;;;;;;;5052416;28;20174;-61
2021/07/10 03:35:43;;;;;;;0.30;0.20;;;;;;;;;;5051869;28;20203;-61
2021/07/10 03:38:09;;;;;;;0.30;0.30;;;;;;;;;;5034758;28;20188;-61
2021/07/10 03:40:36;;;;;;;0.30;0.20;;;;;;;;;;5052250;28;20176;-61
2021/07/10 03:43:04;;;;;;;0.30;0.20;;;;;;;;;;5052313;28;20200;-61
2021/07/10 03:45:30;;;;;;;0.30;0.20;;;;;;;;;;5051755;28;20599;-61
2021/07/10 03:47:56;;;;;;;0.30;0.30;;;;;;;;;;5052612;28;20231;-61
2021/07/10 03:50:22;;;;;;;0.30;0.30;;;;;;;;;;5052268;28;20204;-61
2021/07/10 03:52:48;;;;;;;0.30;0.20;;;;;;;;;;5052284;28;20165;-61
2021/07/10 03:55:15;;;;;;;0.30;0.30;;;;;;;;;;5052290;28;20581;-61
2021/07/10 03:57:41;;;;;;;0.30;0.30;;;;;;;;;;5052116;28;20437;-61
2021/07/10 04:00:18;;;;;;;0.30;0.30;;;;;;;;;;5052100;28;20184;-61
2021/07/10 04:02:44;;;;;;;0.20;0.20;;;;;;;;;;5052721;28;20179;-61
2021/07/10 04:05:11;;;;;;;0.20;0.20;;;;;;;;;;5052043;28;20257;-61
2021/07/10 04:07:37;;;;;;;0.40;0.40;;;;;;;;;;5052150;28;20210;-61
2021/07/10 04:10:05;;;;;;;0.30;0.30;;;;;;;;;;5051709;28;20263;-61
2021/07/10 04:12:31;;;;;;;0.20;0.20;;;;;;;;;;5052558;28;20522;-61
2021/07/10 04:15:00;;;;;;;0.20;0.20;;;;;;;;;;5051947;28;20192;-61
2021/07/10 04:17:27;;;;;;;0.30;0.30;;;;;;;;;;5051909;28;20807;-61
2021/07/10 04:19:53;;;;;;;0.30;0.30;;;;;;;;;;5051829;28;20180;-60
2021/07/10 04:22:19;;;;;;;0.30;0.30;;;;;;;;;;5051815;28;20180;-61
2021/07/10 04:24:45;;;;;;;0.30;0.20;;;;;;;;;;5051557;28;20433;-61
2021/07/10 04:27:11;;;;;;;0.30;0.30;;;;;;;;;;5051777;28;20228;-60
2021/07/10 04:29:37;;;;;;;0.20;0.20;;;;;;;;;;5051621;28;20779;-61
2021/07/10 04:32:03;;;;;;;0.30;0.30;;;;;;;;;;5051568;28;20438;-61
2021/07/10 04:34:29;;;;;;;0.20;0.20;;;;;;;;;;5075266;22;20464;-66
2021/07/10 04:36:55;;;;;;;0.30;0.30;;;;;;;;;;5052101;28;20183;-66
2021/07/10 04:39:21;;;;;;;0.30;0.30;;;;;;;;;;5051701;28;20403;-67
2021/07/10 04:41:47;;;;;;;0.30;0.30;;;;;;;;;;5051564;28;20168;-66
2021/07/10 04:44:13;;;;;;;0.30;0.30;;;;;;;;;;5050613;28;20458;-65
2021/07/10 04:46:39;;;;;;;0.30;0.30;;;;;;;;;;5051672;28;20895;-65
2021/07/10 04:49:05;;;;;;;0.30;0.30;;;;;;;;;;5051571;28;20259;-65
2021/07/10 04:51:31;;;;;;;0.20;0.20;;;;;;;;;;5051547;28;20413;-63
2021/07/10 04:53:57;;;;;;;0.20;0.20;;;;;;;;;;5051685;28;20430;-64
2021/07/10 04:56:23;;;;;;;0.30;0.30;;;;;;;;;;5051529;28;20694;-65
2021/07/10 04:58:49;;;;;;;0.20;0.20;;;;;;;;;;5051631;28;20411;-65
2021/07/10 05:01:15;;;;;;;0.20;0.20;;;;;;;;;;5051273;28;20410;-65
2021/07/10 05:03:41;;;;;;;0.30;0.30;;;;;;;;;;5051398;28;20450;-65
2021/07/10 05:06:08;;;;;;;0.20;0.20;;;;;;;;;;5051695;28;20439;-63
2021/07/10 05:08:34;;;;;;;0.30;0.30;;;;;;;;;;5051445;28;20605;-63
2021/07/10 05:11:00;;;;;;;0.20;0.20;;;;;;;;;;5033174;28;20180;-66
2021/07/10 05:13:26;;;;;;;0.30;0.20;;;;;;;;;;5051298;28;20652;-67
2021/07/10 05:15:52;;;;;;;0.20;0.20;;;;;;;;;;5051244;28;20487;-67
2021/07/10 05:18:19;;;;;;;0.30;0.30;;;;;;;;;;5051510;28;21005;-65
2021/07/10 05:20:46;;;;;;;0.30;0.25;;;;;;;;;;5050983;28;20174;-65
2021/07/10 05:23:12;;;;;;;0.30;0.20;;;;;;;;;;5051056;28;20267;-66
2021/07/10 05:25:38;;;;;;;0.30;0.20;;;;;;;;;;5051021;28;20520;-66
2021/07/10 05:28:04;;;;;;;0.30;0.20;;;;;;;;;;5051106;28;20570;-66
2021/07/10 05:30:30;;;;;;;0.30;0.20;;;;;;;;;;5050992;28;20407;-62
2021/07/10 05:32:56;;;;;;;0.30;0.20;;;;;;;;;;5051244;28;20676;-62
2021/07/10 05:35:23;;;;;;;0.30;0.20;;;;;;;;;;5051034;28;20618;-63
2021/07/10 05:37:49;;;;;;;0.30;0.20;;;;;;;;;;5051191;28;20191;-65
2021/07/10 05:40:16;;;;;;;0.30;0.30;;;;;;;;;;5050837;28;20406;-62
2021/07/10 05:42:42;;;;;;;0.30;0.30;;;;;;;;;;5033301;28;20279;-65
2021/07/10 05:45:09;;;;;;;0.30;0.30;;;;;;;;;;5051149;28;20458;-66
2021/07/10 05:47:35;;;;;;;0.30;0.20;;;;;;;;;;5050995;28;20252;-65
2021/07/10 05:50:01;;;;;;;0.30;0.20;;;;;;;;;;5050625;28;20637;-66
2021/07/10 05:52:27;;;;;;;0.30;0.20;;;;;;;;;;5050845;28;20438;-66
2021/07/10 05:54:53;;;;;;;0.30;0.20;;;;;;;;;;5052074;28;20930;-65
2021/07/10 05:57:19;;;;;;;0.30;0.30;;;;;;;;;;5054703;28;20411;-65
2021/07/10 05:59:45;;;;;;;0.30;0.30;;;;;;;;;;5054504;28;20204;-61
2021/07/10 06:02:11;;;;;;;0.30;0.20;;;;;;;;;;5054496;28;20198;-66
2021/07/10 06:04:37;;;;;;;0.30;0.20;;;;;;;;;;5054297;28;20461;-66
2021/07/10 06:07:06;;;;;;;0.30;0.20;;;;;;;;;;5054356;28;20421;-65
2021/07/10 06:09:32;;;;;;;0.30;0.20;;;;;;;;;;5054118;28;20411;-66
2021/07/10 06:11:58;;;;;;;0.30;0.20;;;;;;;;;;5054112;28;20433;-66
2021/07/10 06:14:24;;;;;;;0.30;0.20;;;;;;;;;;5054358;28;20565;-64
2021/07/10 06:16:50;;;;;;;0.30;0.20;;;;;;;;;;5054177;28;20528;-65
2021/07/10 06:19:16;;;;;;;0.30;0.20;;;;;;;;;;5054113;28;20428;-66
2021/07/10 06:21:42;;;;;;;0.30;0.30;;;;;;;;;;5053864;28;20412;-65
2021/07/10 06:24:08;;;;;;;0.30;0.30;;;;;;;;;;5053947;28;20982;-66
2021/07/10 06:26:34;;;;;;;0.30;0.20;;;;;;;;;;5053970;28;20407;-64
2021/07/10 06:29:02;;;;;;;0.30;0.20;;;;;;;;;;5054036;28;20406;-64
2021/07/10 06:31:28;;;;;;;0.30;0.20;;;;;;;;;;5053725;28;20415;-65
2021/07/10 06:33:54;;;;;;;0.30;0.20;;;;;;;;;;5053539;28;20235;-62
2021/07/10 06:36:20;;;;;;;0.30;0.20;;;;;;;;;;5053845;28;20434;-66
2021/07/10 06:38:46;;;;;;;0.30;0.30;;;;;;;;;;5053516;28;20406;-64
2021/07/10 06:41:12;;;;;;;0.30;0.20;;;;;;;;;;5035505;28;20545;-65
2021/07/10 06:43:38;;;;;;;0.30;0.23;;;;;;;;;;5053807;28;20814;-65
2021/07/10 06:46:07;;;;;;;0.30;0.30;;;;;;;;;;5053565;28;20455;-65
2021/07/10 06:48:33;;;;;;;0.30;0.30;;;;;;;;;;5053535;28;20445;-65
2021/07/10 06:50:59;;;;;;;0.30;0.30;;;;;;;;;;5052978;28;20406;-65
2021/07/10 06:53:25;;;;;;;0.30;0.30;;;;;;;;;;5053322;28;20497;-65
2021/07/10 06:55:51;;;;;;;0.30;0.30;;;;;;;;;;5053352;28;20516;-66
2021/07/10 06:58:18;;;;;;;0.30;0.30;;;;;;;;;;5053331;28;20415;-65
2021/07/10 07:00:44;;;;;;;0.30;0.30;;;;;;;;;;5053033;28;20381;-65
2021/07/10 07:03:10;;;;;;;0.30;0.27;;;;;;;;;;5053370;28;20454;-65
2021/07/10 07:05:36;;;;;;;0.30;0.30;;;;;;;;;;5052819;28;20520;-64
2021/07/10 07:08:02;;;;;;;0.30;0.30;;;;;;;;;;5052865;28;20415;-65
2021/07/10 07:10:28;;;;;;;0.30;0.30;;;;;;;;;;5052981;28;20413;-66
2021/07/10 07:12:54;;;;;;;0.30;0.20;;;;;;;;;;5053149;28;20413;-65
2021/07/10 07:15:20;;;;;;;0.30;0.20;;;;;;;;;;5053057;28;20863;-65
2021/07/10 07:17:46;;;;;;;0.30;0.20;;;;;;;;;;5053362;28;20756;-66
2021/07/10 07:20:13;;;;;;;0.30;0.20;;;;;;;;;;5047001;28;20781;-65
2021/07/10 07:22:40;;;;;;;0.30;0.30;;;;;;;;;;5033036;28;20542;-66
2021/07/10 07:25:06;;;;;;;0.30;0.20;;;;;;;;;;5032324;28;20459;-66
2021/07/10 07:27:32;;;;;;;0.30;0.20;;;;;;;;;;5032485;28;20437;-66
2021/07/10 07:29:58;;;;;;;0.20;0.20;;;;;;;;;;5032243;28;20408;-66
2021/07/10 07:32:24;;;;;;;0.20;0.20;;;;;;;;;;5032514;28;20462;-66
2021/07/10 07:34:50;;;;;;;0.20;0.20;;;;;;;;;;5032325;28;20494;-64
2021/07/10 07:37:17;;;;;;;0.20;0.20;;;;;;;;;;5032396;28;20419;-66
2021/07/10 07:39:46;;;;;;;0.20;0.20;;;;;;;;;;5032200;28;20423;-66
2021/07/10 07:42:15;;;;;;;0.20;0.20;;;;;;;;;;5032087;28;20465;-66
2021/07/10 07:44:42;;;;;;;0.20;0.20;;;;;;;;;;5031960;28;20807;-65
2021/07/10 07:47:09;;;;;;;0.20;0.20;;;;;;;;;;5032320;28;20423;-64
2021/07/10 07:49:35;;;;;;;0.20;0.20;;;;;;;;;;5031780;28;20415;-65
2021/07/10 07:52:01;;;;;;;0.20;0.20;;;;;;;;;;5031972;28;20819;-66
2021/07/10 07:54:27;;;;;;;0.20;0.20;;;;;;;;;;5032127;28;20442;-67
2021/07/10 07:56:53;;;;;;;0.20;0.20;;;;;;;;;;5032119;28;20407;-66
2021/07/10 07:59:20;;;;;;;0.20;0.20;;;;;;;;;;5031867;28;20908;-65
2021/07/10 08:01:46;;;;;;;0.20;0.20;;;;;;;;;;5031996;28;20412;-66
2021/07/10 08:04:12;;;;;;;0.20;0.20;;;;;;;;;;5031770;28;20505;-65
2021/07/10 08:06:38;;;;;;;0.20;0.20;;;;;;;;;;5031927;28;20383;-65
2021/07/10 08:09:04;;;;;;;0.20;0.20;;;;;;;;;;5031799;28;20403;-65
2021/07/10 08:11:30;;;;;;;0.20;0.20;;;;;;;;;;5031581;28;20411;-64
2021/07/10 08:13:57;;;;;;;0.20;0.20;;;;;;;;;;5031555;28;20474;-63
2021/07/10 08:16:24;;;;;;;0.20;0.20;;;;;;;;;;5031715;28;20382;-65
2021/07/10 08:18:51;;;;;;;0.20;0.20;;;;;;;;;;5031479;28;20412;-65
2021/07/10 08:21:17;;;;;;;0.20;0.20;;;;;;;;;;5031423;28;20407;-63
2021/07/10 08:23:43;;;;;;;0.20;0.20;;;;;;;;;;5031200;28;20804;-63
2021/07/10 08:26:09;;;;;;;0.20;0.20;;;;;;;;;;5031530;28;20382;-65
2021/07/10 08:28:35;;;;;;;0.20;0.20;;;;;;;;;;5031953;28;20438;-65
2021/07/10 08:31:01;;;;;;;0.20;0.20;;;;;;;;;;5031207;28;20493;-65
2021/07/10 08:33:28;;;;;;;0.20;0.20;;;;;;;;;;5031687;28;20879;-64
2021/07/10 08:35:54;;;;;;;0.20;0.20;;;;;;;;;;5031240;28;20453;-64
2021/07/10 08:38:20;;;;;;;0.20;0.20;;;;;;;;;;5031247;28;20426;-64
2021/07/10 08:40:46;;;;;;;0.20;0.20;;;;;;;;;;5031188;28;20470;-66
2021/07/10 08:43:12;;;;;;;0.20;0.20;;;;;;;;;;5031516;28;20925;-65
2021/07/10 08:45:38;;;;;;;0.20;0.20;;;;;;;;;;5031608;28;20774;-65
2021/07/10 08:48:05;;;;;;;0.20;0.20;;;;;;;;;;5031653;28;20849;-66
2021/07/10 08:50:31;;;;;;;0.20;0.20;;;;;;;;;;5031549;28;20791;-65
2021/07/10 08:52:57;;;;;;;0.20;0.20;;;;;;;;;;5031567;28;20404;-65
2021/07/10 08:55:24;;;;;;;0.20;0.20;;;;;;;;;;5031457;28;20435;-65
2021/07/10 08:57:51;;;;;;;0.20;0.20;;;;;;;;;;5030978;28;20456;-65
2021/07/10 09:00:19;;;;;;;0.20;0.20;;;;;;;;;;5031342;28;20943;-65
2021/07/10 09:02:46;;;;;;;0.20;0.20;;;;;;;;;;5031506;28;20889;-66
2021/07/10 09:05:13;;;;;;;0.20;0.20;;;;;;;;;;5031352;28;20464;-66
2021/07/10 09:07:58;;;;;;;0.20;0.20;;;;;;;;;;5013699;28;20430;-66
2021/07/10 09:10:37;;;;;;;0.20;0.20;;;;;;;;;;5031236;28;20772;-66
2021/07/10 09:13:03;;;;;;;0.20;0.20;;;;;;;;;;5031551;28;20433;-67
2021/07/10 09:15:29;;;;;;;0.20;0.20;;;;;;;;;;5031321;28;20444;-67
2021/07/10 09:17:55;;;;;;;0.20;0.20;;;;;;;;;;5031384;28;20406;-67
2021/07/10 09:20:22;;;;;;;0.20;0.20;;;;;;;;;;5031016;28;20407;-67
2021/07/10 09:22:49;;;;;;;0.20;0.20;;;;;;;;;;5031454;28;20415;-66
2021/07/10 09:25:23;;;;;;;0.20;0.20;;;;;;;;;;5031151;28;20457;-66
2021/07/10 09:27:50;;;;;;;0.20;0.20;;;;;;;;;;5031178;28;20422;-65
2021/07/10 09:30:16;;;;;;;0.20;0.20;;;;;;;;;;5033078;28;20407;-66
2021/07/10 09:32:42;;;;;;;0.20;0.20;;;;;;;;;;5035031;28;20497;-65
2021/07/10 09:35:10;;;;;;;0.20;0.20;;;;;;;;;;5034779;28;20474;-67
2021/07/10 09:37:38;;;;;;;0.20;0.20;;;;;;;;;;5035187;28;20415;-66
2021/07/10 09:40:08;;;;;;;0.20;0.20;;;;;;;;;;5034948;28;20473;-65
2021/07/10 09:42:36;;;;;;;0.20;0.20;;;;;;;;;;5034925;28;20460;-65
2021/07/10 09:45:03;;;;;;;0.20;0.20;;;;;;;;;;5034718;28;21151;-67
2021/07/10 09:47:33;;;;;;;0.20;0.20;;;;;;;;;;5034730;28;20475;-64
2021/07/10 09:50:00;;;;;;;0.20;0.20;;;;;;;;;;5034533;28;20408;-67
2021/07/10 09:52:29;;;;;;;0.20;0.20;;;;;;;;;;5034726;28;20467;-67
2021/07/10 09:55:06;;;;;;;0.20;0.20;;;;;;;;;;5034608;28;20519;-66
2021/07/10 09:57:34;;;;;;;0.20;0.20;;;;;;;;;;5034867;28;20408;-67
2021/07/10 10:00:03;;;;;;;0.20;0.20;;;;;;;;;;5034424;28;20418;-63
2021/07/10 10:02:30;;;;;;;0.20;0.20;;;;;;;;;;5034720;28;20873;-67
2021/07/10 10:05:08;;;;;;;0.20;0.20;;;;;;;;;;5034487;28;20487;-66
2021/07/10 10:08:00;;;;;;;0.20;0.20;;;;;;;;;;5034452;28;20468;-67
2021/07/10 10:10:27;;;;;;;0.20;0.20;;;;;;;;;;5030602;28;20473;-67
2021/07/10 10:13:08;;;;;;;0.20;0.20;;;;;;;;;;5034419;28;20488;-67
2021/07/10 10:15:45;;;;;;;0.20;0.20;;;;;;;;;;5034252;28;20476;-66
2021/07/10 10:18:12;;;;;;;0.20;0.20;;;;;;;;;;5034463;28;20411;-67
2021/07/10 10:20:39;;;;;;;0.20;0.20;;;;;;;;;;5034011;28;20831;-66
2021/07/10 10:23:06;;;;;;;0.20;0.20;;;;;;;;;;5034385;28;20796;-66
2021/07/10 10:25:34;;;;;;;0.20;0.20;;;;;;;;;;5033944;28;20462;-66
2021/07/10 10:28:00;;;;;;;0.20;0.20;;;;;;;;;;5034382;28;20495;-66
2021/07/10 10:30:26;;;;;;;0.20;0.20;;;;;;;;;;5033917;28;20413;-67
2021/07/10 10:32:52;;;;;;;0.20;0.20;;;;;;;;;;5034109;28;20435;-67
2021/07/10 10:35:21;;;;;;;0.20;0.20;;;;;;;;;;5079309;22;20524;-61
2021/07/10 10:37:47;;;;;;;0.20;0.20;;;;;;;;;;5073833;28;20433;-63
2021/07/10 10:40:18;;;;;;;0.20;0.20;;;;;;;;;;5073436;28;20889;-61
2021/07/10 10:42:44;;;;;;;0.20;0.20;;;;;;;;;;5073711;28;20451;-61
2021/07/10 10:45:11;;;;;;;0.20;0.20;;;;;;;;;;5073551;28;20516;-63
2021/07/10 10:47:42;;;;;;;0.20;0.20;;;;;;;;;;5073624;28;20413;-63
2021/07/10 10:50:19;;;;;;;0.20;0.20;;;;;;;;;;5073201;28;20428;-63
2021/07/10 10:52:45;;;;;;;0.20;0.20;;;;;;;;;;5073510;28;20402;-63
2021/07/10 10:55:13;;;;;;;0.20;0.20;;;;;;;;;;5055536;28;20849;-63
2021/07/10 10:57:51;;;;;;;0.20;0.20;;;;;;;;;;5073582;28;20429;-63
2021/07/10 11:00:31;;;;;;;0.20;0.20;;;;;;;;;;5073216;28;20912;-63
2021/07/10 11:03:01;;;;;;;0.20;0.20;;;;;;;;;;5073450;28;20419;-63
2021/07/10 11:05:32;;;;;;;0.20;0.20;;;;;;;;;;5073128;28;21003;-63
2021/07/10 11:08:17;;;;;;;0.20;0.20;;;;;;;;;;5073557;28;20416;-63
2021/07/10 11:10:46;;;;;;;0.20;0.20;;;;;;;;;;5072078;28;20405;-63
2021/07/10 11:13:27;;;;;;;0.20;0.20;;;;;;;;;;5073099;28;20402;-63
2021/07/10 11:16:20;;;;;;;0.20;0.20;;;;;;;;;;5072899;28;20520;-63
2021/07/10 11:18:46;;;;;;;0.20;0.20;;;;;;;;;;5069597;28;20417;-63
2021/07/10 11:21:12;;;;;;;0.20;0.20;;;;;;;;;;5072726;28;20889;-63
2021/07/10 11:23:38;;;;;;;0.20;0.20;;;;;;;;;;5072910;28;20452;-63
2021/07/10 11:26:08;;;;;;;0.20;0.20;;;;;;;;;;5072773;28;20425;-63
2021/07/10 11:28:40;;;;;;;0.20;0.20;;;;;;;;;;5072964;28;20416;-63
2021/07/10 11:31:08;;;;;;;0.20;0.20;;;;;;;;;;5072581;28;20504;-63
2021/07/10 11:33:52;;;;;;;0.20;0.20;;;;;;;;;;5072914;28;20943;-62
2021/07/10 11:36:37;;;;;;;0.20;0.20;;;;;;;;;;5072465;28;20454;-63
2021/07/10 11:39:04;;;;;;;0.20;0.20;;;;;;;;;;5072601;28;20449;-63
2021/07/10 11:41:31;;;;;;;0.20;0.20;;;;;;;;;;5072459;28;20415;-62
2021/07/10 11:44:13;;;;;;;0.20;0.20;;;;;;;;;;5072382;28;20501;-63
2021/07/10 11:46:59;;;;;;;0.20;0.20;;;;;;;;;;5072496;28;20492;-63
2021/07/10 11:49:40;;;;;;;0.20;0.20;;;;;;;;;;5072446;28;20410;-62
2021/07/10 11:52:12;;;;;;;0.20;0.20;;;;;;;;;;5072317;28;20411;-62
2021/07/10 11:54:39;;;;;;;0.20;0.20;;;;;;;;;;5072444;28;20430;-62
2021/07/10 11:57:06;;;;;;;0.20;0.20;;;;;;;;;;5072386;28;20824;-62
2021/07/10 11:59:37;;;;;;;0.20;0.20;;;;;;;;;;5072319;28;20443;-62
2021/07/10 12:02:19;;;;;;;0.20;0.20;;;;;;;;;;5072248;28;20557;-62
2021/07/10 12:05:05;;;;;;;0.20;0.20;;;;;;;;;;5072288;28;20443;-62
2021/07/10 12:07:32;;;;;;;0.20;0.20;;;;;;;;;;5072558;28;20397;-62
2021/07/10 12:09:58;;;;;;;0.20;0.20;;;;;;;;;;5071699;28;21092;-62
2021/07/10 12:12:24;;;;;;;0.20;0.20;;;;;;;;;;5072019;28;20476;-61
2021/07/10 12:14:51;;;;;;;0.20;0.20;;;;;;;;;;5072138;28;20457;-62
2021/07/10 12:17:17;;;;;;;0.20;0.20;;;;;;;;;;5071977;28;20402;-62
2021/07/10 12:19:43;;;;;;;0.20;0.20;;;;;;;;;;5071802;28;20484;-62
2021/07/10 12:22:09;;;;;;;0.20;0.20;;;;;;;;;;5071905;28;20922;-62
2021/07/10 12:24:36;;;;;;;0.20;0.20;;;;;;;;;;5071724;28;20435;-63
2021/07/10 12:27:12;;;;;;;0.20;0.20;;;;;;;;;;5071927;28;20418;-62
2021/07/10 12:29:38;;;;;;;0.20;0.20;;;;;;;;;;5071813;28;20397;-63
2021/07/10 12:32:14;;;;;;;0.20;0.20;;;;;;;;;;5071954;28;20433;-62
2021/07/10 12:34:47;;;;;;;0.20;0.20;;;;;;;;;;5071816;28;20500;-62
2021/07/10 12:37:20;;;;;;;0.20;0.20;;;;;;;;;;5071690;28;20495;-62
2021/07/10 12:39:46;;;;;;;0.20;0.20;;;;;;;;;;5071591;28;20408;-62
2021/07/10 12:42:13;;;;;;;0.20;0.20;;;;;;;;;;5071648;28;20414;-62
2021/07/10 12:44:40;;;;;;;0.20;0.20;;;;;;;;;;5071538;28;20431;-62
2021/07/10 12:47:12;;;;;;;0.20;0.20;;;;;;;;;;5071630;28;20421;-62
2021/07/10 12:49:42;;;;;;;0.20;0.20;;;;;;;;;;5071428;28;20409;-62
2021/07/10 12:52:20;;;;;;;0.20;0.20;;;;;;;;;;5071224;28;20387;-62
2021/07/10 12:54:52;;;;;;;0.20;0.20;;;;;;;;;;5071437;28;20459;-64
2021/07/10 12:57:18;;;;;;;0.20;0.20;;;;;;;;;;5071439;28;20384;-62
2021/07/10 12:59:59;;;;;;;0.20;0.20;;;;;;;;;;5071517;28;20385;-64
2021/07/10 13:02:35;;;;;;;0.20;0.20;;;;;;;;;;5071494;28;20413;-62
2021/07/10 13:05:11;;;;;;;0.20;0.20;;;;;;;;;;5073113;28;20427;-62
2021/07/10 13:07:37;;;;;;;0.20;0.20;;;;;;;;;;5057490;28;20470;-62
2021/07/10 13:10:03;;;;;;;0.20;0.20;;;;;;;;;;5075343;28;20451;-62
2021/07/10 13:12:40;;;;;;;0.20;0.20;;;;;;;;;;5075462;28;20441;-61
2021/07/10 13:15:07;;;;;;;0.20;0.20;;;;;;;;;;5075741;28;20429;-64
2021/07/10 13:17:33;;;;;;;0.20;0.20;;;;;;;;;;5075376;28;20409;-64
2021/07/10 13:19:59;;;;;;;0.30;0.30;;;;;;;;;;5075095;28;20894;-62
2021/07/10 13:22:43;;;;;;;0.20;0.20;;;;;;;;;;5075147;28;20408;-62
2021/07/10 13:25:10;;;;;;;0.20;0.20;;;;;;;;;;5075119;28;20465;-62
2021/07/10 13:27:36;;;;;;;0.20;0.20;;;;;;;;;;5075251;28;20409;-62
2021/07/10 13:30:12;;;;;;;0.20;0.20;;;;;;;;;;5074883;28;20775;-62
2021/07/10 13:32:38;;;;;;;0.20;0.20;;;;;;;;;;5075083;28;20864;-62
2021/07/10 13:35:05;;;;;;;0.20;0.20;;;;;;;;;;5074922;28;20944;-61
2021/07/10 13:37:31;;;;;;;0.20;0.20;;;;;;;;;;5075358;28;20888;-61
2021/07/10 13:39:58;;;;;;;0.20;0.20;;;;;;;;;;5074763;28;20496;-64
2021/07/10 13:42:25;;;;;;;0.20;0.20;;;;;;;;;;5074981;28;20417;-61
2021/07/10 13:44:54;;;;;;;0.20;0.20;;;;;;;;;;5074665;28;20522;-61
2021/07/10 13:47:20;;;;;;;0.20;0.20;;;;;;;;;;5074671;28;20408;-62
2021/07/10 13:49:49;;;;;;;0.20;0.20;;;;;;;;;;5074737;28;20466;-61
2021/07/10 13:52:16;;;;;;;0.20;0.20;;;;;;;;;;5074730;28;20921;-64
2021/07/10 13:54:42;;;;;;;0.20;0.20;;;;;;;;;;5074620;28;20405;-64
2021/07/10 13:57:16;;;;;;;0.20;0.20;;;;;;;;;;5075133;28;20410;-64
2021/07/10 13:59:52;;;;;;;0.20;0.20;;;;;;;;;;5074325;28;20418;-64
2021/07/10 14:02:18;;;;;;;0.20;0.20;;;;;;;;;;5074559;28;20439;-64
2021/07/10 14:04:44;;;;;;;0.20;0.20;;;;;;;;;;5074409;28;20983;-61
2021/07/10 14:07:10;;;;;;;0.20;0.20;;;;;;;;;;5074755;28;20438;-61
2021/07/10 14:09:36;;;;;;;0.20;0.20;;;;;;;;;;5074387;28;20416;-61
2021/07/10 14:12:02;;;;;;;0.20;0.20;;;;;;;;;;5074084;28;20411;-61
2021/07/10 14:14:29;;;;;;;0.20;0.20;;;;;;;;;;5074355;28;20804;-61
2021/07/10 14:16:55;;;;;;;0.20;0.20;;;;;;;;;;5074151;28;20397;-61
2021/07/10 14:19:21;;;;;;;0.20;0.20;;;;;;;;;;5079765;28;20389;-61
2021/07/10 14:21:47;;;;;;;0.20;0.20;;;;;;;;;;5074172;28;20410;-61
2021/07/10 14:24:13;;;;;;;0.20;0.20;;;;;;;;;;5073974;28;20455;-61
2021/07/10 14:26:39;;;;;;;0.20;0.20;;;;;;;;;;5074099;28;20411;-61
2021/07/10 14:29:05;;;;;;;0.20;0.20;;;;;;;;;;5073939;28;20406;-61
2021/07/10 14:31:31;;;;;;;0.20;0.20;;;;;;;;;;5073964;28;20376;-61
2021/07/10 14:33:57;;;;;;;0.20;0.20;;;;;;;;;;5073853;28;20402;-64
2021/07/10 14:36:23;;;;;;;0.20;0.20;;;;;;;;;;5073833;28;20433;-64
2021/07/10 14:38:49;;;;;;;0.20;0.20;;;;;;;;;;5073904;28;20387;-62
2021/07/10 14:41:15;;;;;;;0.20;0.20;;;;;;;;;;5073475;28;20495;-63
2021/07/10 14:43:41;;;;;;;0.20;0.20;;;;;;;;;;5073712;28;20873;-63
2021/07/10 14:46:08;;;;;;;0.20;0.20;;;;;;;;;;5073736;28;20462;-63